Airfield :
LOGIN :

Register | Disclaimer

   EN    FR    IT 

 










Legend :    VFR   Marginal VFR   IFR   Intensive IFR   Very Intensive IFR
Visi :
Ceiling :
>= 8 km
>= 3000ft
5 to 8 km
1000 to 3000 ft
1500m to 5 km
500 to 1000 ft
800 to 1500m
200 to 500 ft
< 800m
< 200 ft
Symbols :   Thunderstorms  Fog  Heavy snow  Heavy precipitations  Wind > 20 kt
SIGMETs :     Misc.  Thunderstorms  Icing  Turbulence  Mountain Waves  Volcanic Ashes







- Airport Elevation : 265 ft


ETSH - Holzdorf AB

CURRENT METAR :
  • 220820Z 21008KT 9999 FEW025 SCT050 BKN062 08/06 Q1009 BLU BLU

EXPIRED METARs :
  • 220720Z 22008KT 9999 SCT030 BKN045 07/06 Q1008 BLU BLU
  • 220620Z 23008KT 8000 -DZRA SCT022 BKN035 BKN055 08/06 Q1008 BLU BLU

TAF TAF ETSH
Valid from the 22 at 09:00 until the 22 at 18:00 UTC


220824Z 2209/2218 23010G20KT 9999 NSW SCT030 BKN050
No reported NOTAMs for that airfield.
1 SIGMET reported for the Bremen FIR (EDWW) :
 
Severe turbulence
EDWW SIGMET 1 VALID 220727/221000 EDZH
EDWW BREMEN FIR SEV TURB FCST W OF E01110 SFC/2000FT WKN FCST AT 1000Z W OF E01110=



MET'MAP, your aeronautical weather chart ! - Copyright ORBIFLY December 2007 - Disclaimer

ORBIFLY MET'MAP TEAM :

Programming & Development : Alexandra Zaïnal
Concept & Development : Baudouin d'Aumeries
Co-Development & Prog : Marc-Olivier Méhu
Technical & hardware support : Manuel Goepfert

Contact : metmap@orbifly.com




SOURCES & CREDITS :

   NOAA